»·PEaware :: N515ZT KSBP-KBFL

N515ZT :: KSBP-KBFL

FLIGHT INFORMATION

Flight Status: Arrived
Operator: Privately registered:
United States
More flights under this callsign
Pilot: Marty P. (27464)
Aircraft: BEECH AIRCRAFT BARON
(BE58)
More flights by this aircraft type
Origin: KSBP San Luis Co Regl
United States
Destination: KBFL Meadows
United States
More flights between these airports :: More routes between these airports
Route: KSBP FLW FASTO KBFL
File this flight plan on PilotEdge
Remarks:
Altitude:
(Current/Filed)
7,500ft
Speed:
(Current/Filed)
200kts
Departed: 13-Jan-20 02:36 PM
Arrived: 13-Jan-20 03:32 PM
Distance/Time
Traveled:
79nm/0:56
Distance/Time
To Go:
Arrived

Flight Plot

Page will automatically refresh every two minutes.

Flight plan parsing failed; only flown route is shown


Map Options




Map Legend


Flown Route
Filed Route
Departure Airport
Arrival Airport
Navaid (VOR, NDB)
Fix

Horizontal Profiles

Position Reports

Time Latitude Longitude Heading Altitude Ground
Speed
13-Jan-20 14:17 35.234701 -120.633766 260 216ft 0kts
13-Jan-20 14:18 35.234701 -120.633766 260 216ft 0kts
13-Jan-20 14:19 35.234701 -120.633766 260 216ft 0kts
13-Jan-20 14:20 35.234701 -120.633766 260 216ft 0kts
13-Jan-20 14:21 35.234701 -120.633766 260 216ft 0kts
13-Jan-20 14:22 35.234701 -120.633766 260 216ft 0kts
13-Jan-20 14:23 35.234701 -120.633766 260 216ft 0kts
13-Jan-20 14:24 35.234701 -120.633766 260 216ft 0kts
13-Jan-20 14:25 35.234701 -120.633766 260 216ft 0kts
13-Jan-20 14:26 35.234701 -120.633766 260 216ft 0kts
13-Jan-20 14:27 35.234701 -120.633766 260 216ft 0kts
13-Jan-20 14:28 35.234701 -120.633766 260 216ft 0kts
13-Jan-20 14:29 35.234701 -120.633766 260 216ft 0kts
13-Jan-20 14:30 35.235143 -120.634708 307 216ft 10kts
13-Jan-20 14:31 35.234497 -120.634122 125 216ft 17kts
13-Jan-20 14:32 35.233187 -120.632351 210 216ft 0kts
13-Jan-20 14:33 35.233187 -120.632351 210 216ft 0kts
13-Jan-20 14:34 35.232912 -120.632583 229 216ft 12kts
13-Jan-20 14:36 35.238465 -120.643397 304 377ft 116kts
13-Jan-20 14:37 35.248334 -120.662800 303 1273ft 124kts
13-Jan-20 14:38 35.259363 -120.684381 337 2332ft 120kts
13-Jan-20 14:39 35.274101 -120.672668 78 3288ft 137kts
13-Jan-20 14:40 35.262679 -120.647819 125 4281ft 143kts
13-Jan-20 14:41 35.248549 -120.623008 121 5242ft 144kts
13-Jan-20 14:42 35.233585 -120.597798 121 6184ft 145kts
13-Jan-20 14:43 35.224111 -120.568476 99 7116ft 143kts
13-Jan-20 14:44 35.218021 -120.536470 98 7581ft 171kts
13-Jan-20 14:45 35.210827 -120.497702 98 7594ft 195kts
13-Jan-20 14:46 35.203174 -120.456097 98 7520ft 204kts
13-Jan-20 14:47 35.195660 -120.415255 99 7501ft 206kts
13-Jan-20 14:48 35.188334 -120.375510 99 7502ft 206kts
13-Jan-20 14:49 35.181145 -120.336562 99 7500ft 206kts
13-Jan-20 14:50 35.173730 -120.296502 100 7499ft 206kts
13-Jan-20 14:51 35.165887 -120.254193 100 7499ft 206kts
13-Jan-20 14:52 35.158814 -120.216121 100 7499ft 206kts
13-Jan-20 14:53 35.151905 -120.178997 100 7497ft 206kts
13-Jan-20 14:54 35.144994 -120.141921 100 7494ft 206kts
13-Jan-20 14:55 35.138116 -120.105079 100 7491ft 206kts
13-Jan-20 14:56 35.130344 -120.063361 100 7500ft 199kts
13-Jan-20 14:57 35.122289 -120.020460 100 7513ft 204kts
13-Jan-20 14:58 35.114074 -119.976817 100 7485ft 206kts
13-Jan-20 14:59 35.105785 -119.932788 100 7493ft 206kts
13-Jan-20 14:59 35.099057 -119.897227 100 7481ft 206kts
13-Jan-20 15:01 35.096719 -119.849193 75 7537ft 197kts
13-Jan-20 15:02 35.103610 -119.808488 73 7495ft 199kts
13-Jan-20 15:02 35.109805 -119.774211 72 7498ft 200kts
13-Jan-20 15:04 35.118385 -119.726924 73 7491ft 200kts
13-Jan-20 15:04 35.124502 -119.693174 74 7499ft 200kts
13-Jan-20 15:05 35.131734 -119.653279 74 7513ft 201kts
13-Jan-20 15:07 35.140581 -119.604386 74 7538ft 201kts
13-Jan-20 15:07 35.146692 -119.570429 74 7546ft 201kts
13-Jan-20 15:08 35.153950 -119.530147 74 7554ft 202kts
13-Jan-20 15:09 35.161152 -119.489997 74 7563ft 202kts
13-Jan-20 15:10 35.168419 -119.449547 74 7534ft 204kts
13-Jan-20 15:11 35.175991 -119.407163 74 7511ft 203kts
13-Jan-20 15:12 35.183713 -119.363919 74 7516ft 202kts
13-Jan-20 15:13 35.190817 -119.324063 75 7513ft 202kts
13-Jan-20 15:14 35.198644 -119.280071 75 7431ft 205kts
13-Jan-20 15:15 35.206635 -119.235044 75 7160ft 211kts
13-Jan-20 15:16 35.214688 -119.189537 76 6833ft 213kts
13-Jan-20 15:17 35.222372 -119.146044 76 6512ft 213kts
13-Jan-20 15:18 35.229784 -119.103981 76 6208ft 213kts
13-Jan-20 15:19 35.237076 -119.062495 76 5888ft 210kts
13-Jan-20 15:20 35.244802 -119.018514 77 4882ft 201kts
13-Jan-20 15:21 35.261438 -118.983336 10 3658ft 197kts
13-Jan-20 15:22 35.294157 -118.979196 7 2853ft 182kts
13-Jan-20 15:23 35.324625 -118.972721 7 2841ft 176kts
13-Jan-20 15:24 35.350296 -118.967467 0 2416ft 165kts
13-Jan-20 15:25 35.371463 -118.982345 315 2041ft 141kts
13-Jan-20 15:26 35.385598 -118.999047 313 1529ft 129kts
13-Jan-20 15:27 35.400627 -119.016505 318 1371ft 135kts
13-Jan-20 15:28 35.413791 -119.031759 311 1099ft 100kts
13-Jan-20 15:29 35.424310 -119.044706 315 756ft 99kts
13-Jan-20 15:30 35.435638 -119.058222 313 510ft 48kts
13-Jan-20 15:31 35.438145 -119.060075 55 510ft 0kts
13-Jan-20 15:32 35.438227 -119.059565 88 510ft 10kts
13-Jan-20 15:33 35.435724 -119.056249 135 510ft 26kts
13-Jan-20 15:34 35.435183 -119.053762 46 510ft 13kts
13-Jan-20 15:35 35.435704 -119.052376 357 510ft 0kts
13-Jan-20 15:36 35.435703 -119.052043 180 510ft 0kts
13-Jan-20 15:37 35.435703 -119.052043 180 510ft 0kts
13-Jan-20 15:38 35.435570 -119.052108 242 510ft 3kts
13-Jan-20 15:39 35.435443 -119.053389 239 510ft 0kts
13-Jan-20 15:40 35.435214 -119.053725 226 510ft 1kts
13-Jan-20 15:41 35.434296 -119.054502 148 510ft 17kts
13-Jan-20 15:42 35.431758 -119.051448 135 510ft 28kts
13-Jan-20 15:43 35.429001 -119.048110 135 510ft 30kts
13-Jan-20 15:44 35.426333 -119.044894 135 510ft 19kts
13-Jan-20 15:45 35.425784 -119.044708 222 510ft 0kts
13-Jan-20 15:46 35.425784 -119.044708 222 510ft 0kts

Navigation Log

Ident Type
Flight plan parsing failed, navigation log unavailable